Página principal
METAR-TAF:

METAR-TAF

Aeroportos :

Rota, Espanha

latitude: 36-39N, longitude: 006-21W, altura: 26 m

Observação actual do tempo

O boletim foi feito há 4 horas e 49 minutos, às 00:00 UTC
Vento 4 kt de nor-nordeste
Temperatura 8°C
Humidade 87%
Pressão 1008 hPa
Visibilidade 10 km ou mais
sem nuvens abaixo de 1500 metros e sem cumulonimbus

METAR: LERT 220000Z 03004KT CAVOK 08/06 Q1008 NOSIG

Hora: 05:49 (04:49 UTC)

Previsão

O boletim foi feito há 5 horas e 49 minutos, às 23:00 UTC
Previsão válida de 22 às 00 UTC a 22 às 09 UTC
Vento 8 kt de nordeste
Visibilidade 10 km ou mais
sem nuvens abaixo de 1500 metros e sem cumulonimbus

TAF: LERT 212300Z 2200/2209 04008KT CAVOK

Observações e previsões do tempo de mais de 4000 aeroportos (mensagens METAR e TAF).

As estações disponíveis são os pontos amarelos e vermelhos sobre o mapa.

Mova o rato sobre o mapa para ver o nome da estação.

Depois clique no ponto para visualizar as observações e previsões meteorológicas.

Para alterar o mapa : clique nos botões verdes com uma cruz preta para aumentar o zoom; no botão verde com uma pitada de zoom; ou nas setas verdes para mapas adjacentes.


METAR-TAF: